Main page
METAR-TAF:

METAR-TAF

Airports :

El Hierro Airport

El Hierro, Spain

latitude: 27-49N, longitude: 017-53W, elevation: 32 m

Current weather observation

The report was made 25 minutes ago, at 13:30 UTC
Wind 15 kt from the North, varying between North/Northwest and North/Northeast
Temperature 23°C
Humidity 73%
Pressure 1011 hPa
Visibility 10 km or more
Scattered clouds at a height of 2400 ft

METAR: GCHI 011330Z 36015KT 330V030 9999 SCT024 23/18 Q1011

Time: 13:55 (13:55 UTC)

Forecast

The report was made 4 hours and 43 minutes ago, at 09:12 UTC
Forecast valid from 01 at 09 UTC to 02 at 09 UTC
Wind 14 kt from the North/Northwest
Visibility 10 km or more
Scattered clouds at a height of 3500 ft
Probability 30% :
Temporary
from 01 at 09 UTC to 01 at 11 UTC
Wind 5 kt from variable directions
Temporary
from 01 at 09 UTC to 01 at 10 UTC
Visibility: 3500 m
drizzle, rain,

TAF: GCHI 010912Z 0109/0209 34014KT 9999 SCT035 TX24/0114Z TN20/0206Z PROB30 TEMPO 0109/0111 VRB05KT TEMPO 0109/0110 3500 DZRA

Weather observations and forecasts of more than 4000 airports (METAR and TAF reports).

The available stations are represented by yellow and red dots on the map.

Hover mouse over dot to see the name of the station.

Then click to see weather observations and forecasts.

To change the map : click on the green buttons with a black cross to zoom in, on the green button with a dash to zoom out, or on the green arrows for adjacent maps.


METAR-TAF: